createdAt,value
2023-02-11T00:00:57.417Z,26.97
2023-02-11T00:03:24.761Z,21.80
2023-02-11T00:05:59.591Z,24.87
2023-02-11T00:08:27.488Z,26.90
2023-02-11T00:10:55.900Z,26.73
2023-02-11T00:13:23.559Z,23.17
2023-02-11T00:15:51.694Z,24.00
2023-02-11T00:18:19.150Z,26.53
2023-02-11T00:20:46.712Z,25.20
2023-02-11T00:23:16.715Z,26.40
2023-02-11T00:25:44.625Z,23.80
2023-02-11T00:28:12.062Z,23.57
2023-02-11T00:30:41.423Z,25.93
2023-02-11T00:33:09.322Z,27.83
2023-02-11T00:35:38.473Z,22.93
2023-02-11T00:38:08.323Z,26.57
2023-02-11T00:40:35.920Z,22.20
2023-02-11T00:43:04.200Z,23.57
2023-02-11T00:45:31.526Z,24.37
2023-02-11T00:47:58.787Z,24.43
2023-02-11T00:50:28.701Z,27.77
2023-02-11T00:52:56.370Z,22.80
2023-02-11T00:55:23.700Z,24.77
2023-02-11T00:57:50.968Z,22.93
2023-02-11T01:00:18.335Z,25.70
2023-02-11T01:02:45.873Z,20.90
2023-02-11T01:05:13.145Z,24.17
2023-02-11T01:07:40.390Z,21.87
2023-02-11T01:10:26.525Z,24.20
2023-02-11T01:12:53.776Z,25.83
2023-02-11T01:15:21.605Z,21.43
2023-02-11T01:17:48.882Z,23.77
2023-02-11T01:20:18.116Z,23.63
2023-02-11T01:22:45.305Z,21.53
2023-02-11T01:25:12.692Z,25.30
2023-02-11T01:27:40.009Z,24.43
2023-02-11T01:30:09.550Z,22.93
2023-02-11T01:32:36.942Z,24.47
2023-02-11T01:35:04.367Z,23.70
2023-02-11T01:37:33.534Z,21.73
2023-02-11T01:40:02.141Z,23.30
2023-02-11T01:42:29.533Z,26.70
2023-02-11T01:47:43.919Z,23.57
2023-02-11T01:50:12.011Z,24.67
2023-02-11T01:52:40.681Z,23.67
2023-02-11T01:55:30.243Z,22.07
2023-02-11T01:57:58.960Z,21.83
2023-02-11T02:00:33.016Z,23.17
2023-02-11T02:03:05.832Z,23.27
2023-02-11T02:05:36.841Z,26.70
2023-02-11T02:08:23.761Z,24.20
2023-02-11T02:10:54.697Z,23.73
2023-02-11T02:13:21.990Z,23.87
2023-02-11T02:15:54.096Z,23.00
2023-02-11T02:18:27.811Z,23.53
2023-02-11T02:21:13.788Z,25.07
2023-02-11T02:24:12.565Z,23.50
2023-02-11T02:26:59.791Z,27.70
2023-02-11T02:29:44.477Z,26.17
2023-02-11T02:32:24.328Z,25.23
2023-02-11T02:34:54.525Z,23.13
2023-02-11T02:37:36.849Z,23.00
2023-02-11T02:40:08.585Z,23.67
2023-02-11T02:42:36.145Z,23.80
2023-02-11T02:45:03.417Z,24.33
2023-02-11T02:47:30.673Z,23.80
2023-02-11T02:49:57.866Z,24.63
2023-02-11T02:52:28.093Z,24.33
2023-02-11T02:55:03.337Z,24.40
2023-02-11T02:57:33.456Z,23.60
2023-02-11T03:00:07.264Z,22.83
2023-02-11T03:02:58.833Z,22.27
2023-02-11T03:06:02.840Z,23.57
2023-02-11T03:08:51.651Z,21.97
2023-02-11T03:11:20.236Z,22.70
2023-02-11T03:13:48.157Z,23.17
2023-02-11T03:16:23.684Z,25.37
2023-02-11T03:18:53.894Z,22.93
2023-02-11T03:21:21.504Z,21.20
2023-02-11T03:23:52.258Z,25.57
2023-02-11T03:26:24.057Z,25.13
2023-02-11T03:28:54.140Z,23.13
2023-02-11T03:31:27.847Z,21.03
2023-02-11T03:34:02.374Z,21.77
2023-02-11T03:36:38.746Z,24.43
2023-02-11T03:39:06.562Z,25.63
2023-02-11T03:41:35.129Z,24.13
2023-02-11T03:44:03.264Z,22.90
2023-02-11T03:46:36.249Z,22.50
2023-02-11T03:49:04.898Z,24.27
2023-02-11T03:51:33.195Z,26.77
2023-02-11T03:54:02.651Z,26.70
2023-02-11T03:56:31.638Z,26.63
2023-02-11T03:58:59.494Z,24.40
2023-02-11T04:01:26.776Z,24.53
2023-02-11T04:03:54.071Z,25.57
2023-02-11T04:06:21.280Z,27.77
2023-02-11T04:08:48.674Z,25.07
2023-02-11T04:11:15.913Z,23.27
2023-02-11T04:13:43.231Z,25.47
2023-02-11T04:16:10.465Z,25.70
2023-02-11T04:18:37.733Z,27.33
2023-02-11T04:21:05.019Z,25.53
2023-02-11T04:23:32.521Z,26.63
2023-02-11T04:25:59.772Z,25.27
2023-02-11T04:28:29.412Z,27.20
2023-02-11T04:30:57.221Z,28.03
2023-02-11T04:33:24.946Z,26.97
2023-02-11T04:35:52.556Z,25.97
2023-02-11T04:38:19.935Z,27.43
2023-02-11T04:40:47.178Z,26.70
2023-02-11T04:43:14.391Z,27.17
2023-02-11T04:45:41.686Z,26.40
2023-02-11T04:48:08.926Z,25.73
2023-02-11T04:50:36.186Z,24.53
2023-02-11T04:53:03.372Z,24.80
2023-02-11T04:55:30.632Z,28.17
2023-02-11T04:57:57.872Z,23.63
2023-02-11T05:00:25.186Z,26.23
2023-02-11T05:02:52.473Z,25.40
2023-02-11T05:05:19.914Z,25.37
2023-02-11T05:07:48.290Z,27.77
2023-02-11T05:10:17.642Z,25.70
2023-02-11T05:12:44.992Z,29.70
2023-02-11T05:15:12.228Z,26.17
2023-02-11T05:17:39.615Z,25.03
2023-02-11T05:20:07.245Z,25.50
2023-02-11T05:22:34.608Z,27.83
2023-02-11T05:25:01.855Z,29.90
2023-02-11T05:27:29.420Z,27.80
2023-02-11T05:29:56.608Z,30.17
2023-02-11T05:32:25.448Z,26.07
2023-02-11T05:34:52.736Z,26.20
2023-02-11T05:37:20.082Z,24.37
2023-02-11T05:39:47.439Z,27.03
2023-02-11T05:42:14.982Z,27.67
2023-02-11T05:44:42.223Z,26.50
2023-02-11T05:47:09.594Z,25.50
2023-02-11T05:49:36.952Z,27.73
2023-02-11T05:52:04.403Z,27.60
2023-02-11T05:54:33.992Z,31.17
2023-02-11T05:57:01.197Z,26.73
2023-02-11T05:59:28.473Z,26.77
2023-02-11T06:01:55.698Z,26.80
2023-02-11T06:04:23.016Z,28.80
2023-02-11T06:06:50.224Z,28.27
2023-02-11T06:09:17.459Z,29.20
2023-02-11T06:11:44.666Z,27.40
2023-02-11T06:14:12.139Z,28.00
2023-02-11T06:16:39.533Z,27.90
2023-02-11T06:19:06.728Z,28.93
2023-02-11T06:21:43.420Z,30.93
2023-02-11T06:24:11.847Z,31.20
2023-02-11T06:26:39.114Z,28.27
2023-02-11T06:29:06.350Z,30.30
2023-02-11T06:31:33.689Z,31.20
2023-02-11T06:34:01.471Z,28.07
2023-02-11T06:36:28.767Z,33.37
2023-02-11T06:38:56.007Z,30.23
2023-02-11T06:41:23.911Z,29.87
2023-02-11T06:43:51.354Z,30.70
2023-02-11T06:46:18.680Z,33.07
2023-02-11T06:48:46.037Z,30.67
2023-02-11T06:51:14.049Z,30.47
2023-02-11T06:53:47.824Z,25.60
2023-02-11T06:56:17.114Z,28.57
2023-02-11T06:58:44.903Z,33.60
2023-02-11T07:01:14.641Z,28.87
2023-02-11T07:03:43.305Z,28.70
2023-02-11T07:06:12.875Z,29.20
2023-02-11T07:08:42.401Z,26.40
2023-02-11T07:11:10.746Z,28.03
2023-02-11T07:13:37.925Z,29.77
2023-02-11T07:16:07.243Z,29.33
2023-02-11T07:18:34.648Z,33.10
2023-02-11T07:21:09.820Z,28.37
2023-02-11T07:23:37.682Z,30.13
2023-02-11T07:26:05.979Z,30.70
2023-02-11T07:28:34.501Z,30.20
2023-02-11T07:31:12.402Z,30.63
2023-02-11T07:33:40.056Z,29.13
2023-02-11T07:36:08.795Z,30.87
2023-02-11T07:38:36.458Z,28.70
2023-02-11T07:41:04.504Z,32.70
2023-02-11T07:43:32.399Z,33.47
2023-02-11T07:45:59.645Z,32.40
2023-02-11T07:48:26.824Z,29.57
2023-02-11T07:50:54.039Z,35.20
2023-02-11T07:53:39.984Z,29.97
2023-02-11T07:56:07.998Z,30.03
2023-02-11T07:58:35.283Z,31.57
2023-02-11T08:01:03.811Z,29.97
2023-02-11T08:03:31.135Z,30.10
2023-02-11T08:05:58.624Z,30.60
2023-02-11T08:08:29.156Z,29.83
2023-02-11T08:10:56.424Z,30.40
2023-02-11T08:13:23.645Z,30.47
2023-02-11T08:15:51.075Z,30.23
2023-02-11T08:18:19.630Z,33.10
2023-02-11T08:20:46.855Z,29.73
2023-02-11T08:23:14.094Z,30.67
2023-02-11T08:25:41.256Z,30.63
2023-02-11T08:28:09.217Z,30.33
2023-02-11T08:30:36.715Z,31.07
2023-02-11T08:33:04.035Z,30.30
2023-02-11T08:35:31.326Z,26.73
2023-02-11T08:37:58.552Z,26.17
2023-02-11T08:40:25.812Z,31.97
2023-02-11T08:42:53.068Z,27.90
2023-02-11T08:45:20.328Z,26.57
2023-02-11T08:47:47.548Z,26.30
2023-02-11T08:50:14.821Z,27.63
2023-02-11T08:52:43.041Z,27.47
2023-02-11T08:55:10.294Z,29.43
2023-02-11T08:57:37.570Z,26.47
2023-02-11T09:00:05.068Z,29.57
2023-02-11T09:02:32.390Z,31.03
2023-02-11T09:04:59.656Z,28.77
2023-02-11T09:07:26.883Z,28.87
2023-02-11T09:09:54.089Z,25.87
2023-02-11T09:12:21.347Z,26.13
2023-02-11T09:14:48.699Z,26.97
2023-02-11T09:17:15.910Z,27.60
2023-02-11T09:19:43.182Z,28.93
2023-02-11T09:22:10.421Z,28.20
2023-02-11T09:24:37.597Z,31.07
2023-02-11T09:27:04.857Z,30.87
2023-02-11T09:32:19.446Z,27.80
2023-02-11T09:34:46.688Z,27.53
2023-02-11T09:37:13.935Z,29.00
2023-02-11T09:39:41.457Z,28.30
2023-02-11T09:42:24.752Z,30.17
2023-02-11T09:44:52.347Z,29.73
2023-02-11T09:47:22.421Z,27.87
2023-02-11T09:49:51.298Z,28.40
2023-02-11T09:52:33.224Z,29.63
2023-02-11T09:55:01.914Z,28.07
2023-02-11T09:57:33.160Z,31.03
2023-02-11T10:00:01.192Z,27.77
2023-02-11T10:02:45.046Z,29.53
2023-02-11T10:05:32.873Z,29.97
2023-02-11T10:08:16.924Z,27.63
2023-02-11T10:10:59.363Z,30.60
2023-02-11T10:13:32.474Z,30.57
2023-02-11T10:16:00.056Z,28.67
2023-02-11T10:18:46.129Z,29.73
2023-02-11T10:21:18.097Z,28.97
2023-02-11T10:23:47.392Z,28.73
2023-02-11T10:26:16.833Z,28.13
2023-02-11T10:28:46.089Z,30.60
2023-02-11T10:31:23.377Z,26.67
2023-02-11T10:33:55.015Z,27.80
2023-02-11T10:36:23.970Z,28.83
2023-02-11T10:38:51.252Z,29.47
2023-02-11T10:41:21.010Z,27.53
2023-02-11T10:43:48.322Z,26.80
2023-02-11T10:46:18.358Z,27.30
2023-02-11T10:48:51.559Z,28.53
2023-02-11T10:51:23.394Z,28.77
2023-02-11T10:54:14.379Z,28.00
2023-02-11T10:56:45.707Z,27.80
2023-02-11T10:59:21.147Z,29.87
2023-02-11T11:01:53.408Z,28.33
2023-02-11T11:04:30.615Z,24.10
2023-02-11T11:06:59.301Z,27.90
2023-02-11T11:09:30.409Z,27.60
2023-02-11T11:11:57.749Z,24.33
2023-02-11T11:14:28.968Z,26.47
2023-02-11T11:16:56.448Z,24.50
2023-02-11T11:19:24.677Z,28.30
2023-02-11T11:21:56.322Z,26.57
2023-02-11T11:24:33.567Z,26.27
2023-02-11T11:27:02.359Z,26.23
2023-02-11T11:29:34.721Z,25.23
2023-02-11T11:32:05.582Z,23.10
2023-02-11T11:34:38.658Z,27.17
2023-02-11T11:37:13.669Z,28.97
2023-02-11T11:39:41.263Z,30.90
2023-02-11T11:42:31.796Z,28.23
2023-02-11T11:45:20.365Z,27.40
2023-02-11T11:47:58.687Z,27.73
2023-02-11T11:50:27.957Z,25.60
2023-02-11T11:53:15.399Z,24.63
2023-02-11T11:55:48.977Z,25.53
2023-02-11T11:58:17.955Z,28.83
2023-02-11T12:00:52.998Z,28.27
2023-02-11T12:03:37.694Z,25.57
2023-02-11T12:06:32.699Z,25.93
2023-02-11T12:09:03.096Z,25.47
2023-02-11T12:11:49.220Z,27.37
2023-02-11T12:14:35.188Z,21.83
2023-02-11T12:17:08.280Z,25.77
2023-02-11T12:19:35.514Z,24.27
2023-02-11T12:22:05.864Z,25.47
2023-02-11T12:24:45.355Z,23.63
2023-02-11T12:30:02.637Z,27.63
2023-02-11T12:32:48.541Z,25.87
2023-02-11T12:35:35.040Z,23.87
2023-02-11T12:38:08.349Z,23.33
2023-02-11T12:40:35.671Z,25.73
2023-02-11T12:43:16.934Z,23.70
2023-02-11T12:45:44.302Z,26.70
2023-02-11T12:48:29.059Z,23.90
2023-02-11T12:50:56.850Z,26.77
2023-02-11T12:53:36.458Z,21.37
2023-02-11T12:56:16.158Z,25.07
2023-02-11T12:58:45.683Z,22.07
2023-02-11T13:01:24.835Z,26.50
2023-02-11T13:03:57.492Z,25.17
2023-02-11T13:06:34.655Z,27.60
2023-02-11T13:09:03.944Z,30.30
2023-02-11T13:11:35.538Z,23.23
2023-02-11T13:14:05.056Z,25.10
2023-02-11T13:16:45.997Z,24.77
2023-02-11T13:19:31.541Z,25.73
2023-02-11T13:22:18.360Z,26.50
2023-02-11T13:24:50.889Z,25.30
2023-02-11T13:27:22.855Z,23.20
2023-02-11T13:29:50.161Z,22.80
2023-02-11T13:32:17.449Z,24.50
2023-02-11T13:34:44.661Z,23.20
2023-02-11T13:37:26.628Z,27.13
2023-02-11T13:40:12.768Z,25.17
2023-02-11T13:42:50.941Z,25.90
2023-02-11T13:45:25.796Z,26.27
2023-02-11T13:47:57.554Z,23.63
2023-02-11T13:50:25.619Z,23.00
2023-02-11T13:53:03.431Z,24.80
2023-02-11T13:55:31.256Z,24.30
2023-02-11T13:58:07.616Z,25.37
2023-02-11T14:00:34.931Z,23.97
2023-02-11T14:03:30.236Z,23.23
2023-02-11T14:06:35.880Z,26.27
2023-02-11T14:09:09.415Z,26.07
2023-02-11T14:11:56.366Z,23.80
2023-02-11T14:14:24.193Z,24.03
2023-02-11T14:17:03.580Z,26.60
2023-02-11T14:19:33.006Z,25.33
2023-02-11T14:22:04.147Z,23.57
2023-02-11T14:24:31.422Z,23.20
2023-02-11T14:27:01.366Z,23.57
2023-02-11T14:29:41.819Z,24.30
2023-02-11T14:32:24.202Z,26.67
2023-02-11T14:35:01.167Z,27.50
2023-02-11T14:37:31.541Z,23.00
2023-02-11T14:40:08.237Z,21.33
2023-02-11T14:42:37.928Z,23.37
2023-02-11T14:45:07.183Z,23.00
2023-02-11T14:47:54.701Z,23.30
2023-02-11T14:50:42.190Z,26.03
2023-02-11T14:53:13.931Z,25.77
2023-02-11T14:55:42.597Z,26.37
2023-02-11T14:58:12.804Z,25.20
2023-02-11T15:00:49.324Z,25.13
2023-02-11T15:03:32.248Z,21.83
2023-02-11T15:06:04.747Z,24.70
2023-02-11T15:08:32.645Z,23.80
2023-02-11T15:11:01.715Z,25.83
2023-02-11T15:13:31.368Z,28.77
2023-02-11T15:16:02.088Z,25.27
2023-02-11T15:18:33.956Z,25.53
2023-02-11T15:21:01.377Z,21.23
2023-02-11T15:23:30.153Z,24.27
2023-02-11T15:25:57.489Z,25.43
2023-02-11T15:28:24.805Z,24.57
2023-02-11T15:31:18.857Z,21.77
2023-02-11T15:33:46.470Z,21.27
2023-02-11T15:36:14.515Z,21.27
2023-02-11T15:38:41.810Z,25.80
2023-02-11T15:41:09.738Z,24.40
2023-02-11T15:43:44.581Z,20.93
2023-02-11T15:46:13.840Z,23.50
2023-02-11T15:48:59.214Z,25.10
2023-02-11T15:51:32.896Z,23.43
2023-02-11T15:54:01.601Z,19.77
2023-02-11T15:56:49.199Z,21.80
2023-02-11T15:59:20.842Z,21.73
2023-02-11T16:01:48.985Z,23.27
2023-02-11T16:04:24.191Z,22.97
2023-02-11T16:06:51.546Z,23.17
2023-02-11T16:09:25.193Z,23.17
2023-02-11T16:12:10.946Z,24.30
2023-02-11T16:14:39.423Z,22.67
2023-02-11T16:17:13.901Z,22.03
2023-02-11T16:19:45.377Z,22.40
2023-02-11T16:22:16.527Z,22.50
2023-02-11T16:24:47.102Z,22.23
2023-02-11T16:27:29.791Z,24.50
2023-02-11T16:29:57.916Z,24.10
2023-02-11T16:32:26.050Z,23.20
2023-02-11T16:34:55.122Z,25.73
2023-02-11T16:37:22.458Z,22.97
2023-02-11T16:39:49.729Z,23.13
2023-02-11T16:42:17.055Z,26.10
2023-02-11T16:44:44.288Z,24.20
2023-02-11T16:47:19.168Z,24.60
2023-02-11T16:49:46.599Z,27.40
2023-02-11T16:52:15.338Z,26.20
2023-02-11T16:54:42.760Z,24.60
2023-02-11T16:57:14.226Z,27.00
2023-02-11T16:59:41.465Z,26.43
2023-02-11T17:02:16.781Z,24.53
2023-02-11T17:04:44.557Z,27.77
2023-02-11T17:07:11.802Z,26.67
2023-02-11T17:09:39.112Z,27.80
2023-02-11T17:12:06.505Z,25.80
2023-02-11T17:14:33.721Z,29.20
2023-02-11T17:17:01.658Z,27.67
2023-02-11T17:19:29.001Z,30.03
2023-02-11T17:21:56.168Z,27.33
2023-02-11T17:24:23.963Z,28.03
2023-02-11T17:26:51.503Z,26.40
2023-02-11T17:29:20.414Z,26.83
2023-02-11T17:34:32.767Z,27.27
2023-02-11T17:37:00.306Z,26.50
2023-02-11T17:39:27.977Z,29.33
2023-02-11T17:41:55.287Z,28.60
2023-02-11T17:44:22.536Z,26.43
2023-02-11T17:46:49.767Z,26.57
2023-02-11T17:49:17.018Z,28.20
2023-02-11T17:51:44.622Z,27.13
2023-02-11T17:54:13.620Z,27.43
2023-02-11T17:56:41.381Z,29.63
2023-02-11T17:59:09.297Z,26.77
2023-02-11T18:01:37.485Z,24.80
2023-02-11T18:04:05.104Z,29.50
2023-02-11T18:06:33.843Z,28.17
2023-02-11T18:09:02.328Z,27.53
2023-02-11T18:11:30.492Z,32.03
2023-02-11T18:14:01.580Z,26.10
2023-02-11T18:16:30.411Z,29.03
2023-02-11T18:18:59.430Z,29.30
2023-02-11T18:21:27.076Z,28.53
2023-02-11T18:23:54.368Z,26.77
2023-02-11T18:26:22.222Z,27.27
2023-02-11T18:28:49.526Z,31.47
2023-02-11T18:31:17.826Z,28.27
2023-02-11T18:33:45.784Z,26.03
2023-02-11T18:36:14.233Z,26.73
2023-02-11T18:38:42.036Z,28.13
2023-02-11T18:41:09.723Z,29.60
2023-02-11T18:43:37.462Z,31.50
2023-02-11T18:46:09.139Z,30.50
2023-02-11T18:48:37.149Z,30.27
2023-02-11T18:51:08.945Z,30.33
2023-02-11T18:53:36.393Z,27.63
2023-02-11T18:56:07.121Z,29.17
2023-02-11T18:58:34.374Z,31.27
2023-02-11T19:01:01.660Z,30.63
2023-02-11T19:03:28.875Z,31.27
2023-02-11T19:05:56.093Z,29.60
2023-02-11T19:08:23.606Z,30.03
2023-02-11T19:10:52.118Z,30.47
2023-02-11T19:13:19.373Z,34.20
2023-02-11T19:15:48.360Z,30.93
2023-02-11T19:18:16.725Z,28.77
2023-02-11T19:20:44.442Z,29.17
2023-02-11T19:23:12.026Z,28.17
2023-02-11T19:25:45.036Z,28.50
2023-02-11T19:28:13.064Z,40.90
2023-02-11T19:30:40.439Z,30.07
2023-02-11T19:33:10.069Z,28.80
2023-02-11T19:35:37.494Z,32.27
2023-02-11T19:38:05.847Z,28.07
2023-02-11T19:40:33.429Z,31.03
2023-02-11T19:43:00.610Z,25.97
2023-02-11T19:45:27.884Z,27.33
2023-02-11T19:47:55.924Z,27.83
2023-02-11T19:50:23.528Z,28.93
2023-02-11T19:52:50.788Z,28.63
2023-02-11T19:55:18.298Z,24.37
2023-02-11T19:57:48.019Z,28.37
2023-02-11T20:00:15.475Z,28.47
2023-02-11T20:02:43.959Z,24.57
2023-02-11T20:05:11.401Z,26.00
2023-02-11T20:07:38.619Z,24.93
2023-02-11T20:10:06.817Z,25.00
2023-02-11T20:12:34.076Z,22.77
2023-02-11T20:15:01.296Z,22.60
2023-02-11T20:17:28.522Z,26.20
2023-02-11T20:19:55.828Z,27.80
2023-02-11T20:22:23.036Z,31.50
2023-02-11T20:24:50.230Z,28.53
2023-02-11T20:27:19.980Z,26.93
2023-02-11T20:29:47.398Z,24.00
2023-02-11T20:32:15.415Z,25.20
2023-02-11T20:34:42.695Z,24.67
2023-02-11T20:37:10.537Z,23.13
2023-02-11T20:39:40.877Z,26.67
2023-02-11T20:42:12.040Z,23.93
2023-02-11T20:44:39.533Z,25.57
2023-02-11T20:47:06.753Z,24.63
2023-02-11T20:49:34.079Z,23.97
2023-02-11T20:52:01.259Z,23.20
2023-02-11T20:54:28.711Z,24.57
2023-02-11T20:56:57.041Z,25.07
2023-02-11T20:59:24.708Z,25.47
2023-02-11T21:01:54.105Z,26.20
2023-02-11T21:04:40.396Z,28.63
2023-02-11T21:07:07.670Z,29.50
2023-02-11T21:09:34.921Z,30.73
2023-02-11T21:12:02.779Z,27.63
2023-02-11T21:14:30.373Z,26.27
2023-02-11T21:16:57.878Z,30.40
2023-02-11T21:19:25.397Z,30.10
2023-02-11T21:21:52.787Z,28.00
2023-02-11T21:24:20.038Z,30.30
2023-02-11T21:26:47.413Z,27.60
2023-02-11T21:29:14.651Z,29.80
2023-02-11T21:31:42.284Z,25.77
2023-02-11T21:34:10.853Z,28.23
2023-02-11T21:36:38.067Z,26.87
2023-02-11T21:39:05.989Z,28.40
2023-02-11T21:41:33.306Z,28.53
2023-02-11T21:44:00.586Z,28.47
2023-02-11T21:46:28.117Z,28.27
2023-02-11T21:49:14.032Z,27.00
2023-02-11T21:51:41.541Z,27.57
2023-02-11T21:54:08.939Z,28.37
2023-02-11T21:56:36.770Z,26.57
2023-02-11T21:59:04.449Z,28.20
2023-02-11T22:01:33.146Z,25.87
2023-02-11T22:04:00.901Z,32.60
2023-02-11T22:06:31.011Z,24.97
2023-02-11T22:08:58.661Z,27.20
2023-02-11T22:11:25.902Z,25.80
2023-02-11T22:13:56.501Z,28.47
2023-02-11T22:16:24.218Z,27.90
2023-02-11T22:18:51.656Z,33.33
2023-02-11T22:21:20.540Z,29.67
2023-02-11T22:23:48.140Z,29.80
2023-02-11T22:26:17.488Z,29.37
2023-02-11T22:28:44.733Z,31.10
2023-02-11T22:31:13.563Z,29.70
2023-02-11T22:33:40.873Z,30.73
2023-02-11T22:36:09.830Z,30.60
2023-02-11T22:38:37.058Z,30.10
2023-02-11T22:41:08.224Z,36.00
2023-02-11T22:43:35.578Z,34.57
2023-02-11T22:46:07.270Z,30.67
2023-02-11T22:48:35.584Z,30.27
2023-02-11T22:51:06.639Z,34.27
2023-02-11T22:53:34.293Z,32.37
2023-02-11T22:56:09.817Z,33.40
2023-02-11T22:58:37.349Z,31.53
2023-02-11T23:01:06.015Z,32.47
2023-02-11T23:03:33.736Z,32.63
2023-02-11T23:06:01.662Z,33.70
2023-02-11T23:08:29.563Z,29.77
2023-02-11T23:10:56.832Z,35.33
2023-02-11T23:13:24.123Z,32.67
2023-02-11T23:15:51.378Z,34.03
2023-02-11T23:18:18.792Z,33.20
2023-02-11T23:20:46.079Z,34.17
2023-02-11T23:23:13.306Z,33.67
2023-02-11T23:25:44.426Z,32.57
2023-02-11T23:28:12.034Z,28.90
2023-02-11T23:30:41.474Z,34.97
2023-02-11T23:33:08.764Z,34.57
2023-02-11T23:35:36.632Z,33.33
2023-02-11T23:38:04.142Z,32.47
2023-02-11T23:40:31.518Z,32.60
2023-02-11T23:42:58.757Z,36.10
2023-02-11T23:45:26.150Z,34.63
2023-02-11T23:47:53.614Z,36.70
2023-02-11T23:50:20.885Z,38.97
2023-02-11T23:52:48.210Z,37.67
2023-02-11T23:55:15.469Z,35.13
2023-02-11T23:57:42.685Z,37.30
